Pixley, CA (93256)

12:32 AM PDT en Noviembre 01, 2014 (GMT -0700)
Porterville Municipal | Change Station
CLOSE
Current Station
Aeropuerto
Location: Porterville,
Altura: 443 ft
Estaciones meteorológicas cercanas

Alt 443 ft 36.03 °N, 119.06 °W | Updated 17 minutes ago

Lluvia
Lluvia
54 ° F
Sensación térmica 54 ° F
N
10
Viento Variable Viento desde Este

Hoy
Alta -- | Baja -- ° F
--% Posibilidad de precipitaciones
Ayer
Alta -- | Baja -- ° F
Precip. -- pul
7:19 AM 6:01 PM
Gibosa creciente, 64% visible
Presión 29.85 pul
Visibilidad 7.0 Millas
Nubes Muy nublado 3000 ft
Nublado 3600 ft
Punto de rocío 50 ° F
Humedad 88%
Precipitaciones 0.13 pul
Espesor de la nieve No disponible.
UV 0 de una escala de 12
Polen 4.00 de una escala de 12
Calidad del aire No disponible.
Flu Activity No disponible.
METAR KPTV 010715Z AUTO 10009KT 7SM BKN030 OVC036 12/10 A2985 RMK AO1 P0013

More Conditions Fewer Conditions

Presión 29.85 pul
Visibilidad 7.0 Millas
Nubes Muy nublado 3000 ft
Nublado 3600 ft
Punto de rocío 50 ° F
Humedad 88%
Precipitaciones 0.13 pul
Espesor de la nieve No disponible.
UV 0 de una escala de 12
Polen 4.00 de una escala de 12
Calidad del aire No disponible.
Flu Activity No disponible.
METAR KPTV 010715Z AUTO 10009KT 7SM BKN030 OVC036 12/10 A2985 RMK AO1 P0013

More Conditions Fewer Conditions

10-Day Weather Forecast

Almanac

Astronomía

Nov. 01, 2014 Salida Puesta
Hora real
Crepúsculo civil
Crepúsculo náutico
Crepúsculo astronómico
Luna
Horas de luz
Horas de luz
Tomorrow will be .
, % of the Moon is Illuminated

Extremos de hoy

Máximos del estado Bajos del estado

Community

WunderPhotos

Upload Photos

1,766,866 ¡fotos cargadas!

WunderBlogs® & News

Nearby

Calidad del aire

  Calidad del aire Índice AQ Contaminante
Not available.

Grosos de nieve

Estación Profundido Altura

Actividad de terremotos

Ciudad Distance Mag. Tiempo y dato
Magnitud mínima muestra es 2,5.

Temperaturas de aguas costeras

Lugar Temperatura

Estaciones meteorológicas cercanas